.
WxDataArchive / Data Records for 2011-12-22
2011-12-21 December 2011 2011-12-23

Data Records for Thursday, 22 December 2011

Time	Temp	Chill	HIndex	Humid	Dewpt	 Wind 	HiWind	WindDir	Rain 	Barom 
-----	----	-----	------	-----	-----	------	------	-------	-----	----- 
00:00	41.5	41.5	41.5	88	38.2	2	4	270	0.00	29.960 
00:05	41.5	41.5	41.5	88	38.2	1	4	248	0.00	29.960 
00:10	41.5	41.5	41.5	88	38.2	0	2	248	0.00	29.960 
00:15	41.5	41.5	41.5	88	38.2	0	3	248	0.00	29.960 
00:20	41.3	41.3	41.3	89	38.3	0	3	248	0.00	29.960 
00:25	41.3	41.3	41.3	89	38.3	0	3	248	0.00	29.960 
00:30	41.2	41.2	41.2	89	38.2	0	2	248	0.00	29.959 
00:35	41.2	41.2	41.2	89	38.2	0	2	248	0.00	29.959 
00:40	41.2	41.2	41.2	89	38.2	1	3	248	0.00	29.959 
00:45	41.1	41.1	41.1	89	38.1	0	2	270	0.00	29.968 
00:50	41.1	41.1	41.1	89	38.1	0	2	270	0.00	29.968 
00:55	41.1	41.1	41.1	89	38.1	1	4	248	0.00	29.968 
01:00	41.1	41.1	41.1	89	38.1	1	3	248	0.00	29.970 
01:05	41.1	41.1	41.1	89	38.1	2	4	248	0.00	29.970 
01:10	41.1	41.1	41.1	88	37.8	2	4	248	0.00	29.970 
01:15	40.9	40.9	40.9	89	37.9	0	3	248	0.00	29.972 
01:20	40.9	40.9	40.9	89	37.9	1	4	248	0.00	29.972 
01:25	40.8	40.8	40.8	89	37.8	1	3	248	0.00	29.972 
01:30	40.8	40.8	40.8	89	37.8	1	3	248	0.00	29.986 
01:35	40.8	40.8	40.8	90	38.1	1	5	248	0.00	29.986 
01:40	40.6	40.6	40.6	90	37.9	1	3	248	0.00	29.986 
01:45	40.6	40.6	40.6	90	37.9	1	3	248	0.00	29.988 
01:50	40.5	40.5	40.5	90	37.8	1	4	248	0.00	29.988 
01:55	40.5	40.5	40.5	91	38.1	1	4	248	0.00	29.988 
02:00	40.3	40.3	40.3	91	37.9	0	3	248	0.00	29.988 
02:05	40.3	40.3	40.3	91	37.9	1	4	248	0.00	29.988 
02:10	40.3	40.3	40.3	91	37.9	0	3	248	0.00	29.988 
02:15	40.3	40.3	40.3	91	37.9	0	2	248	0.00	29.992 
02:20	40.3	40.3	40.3	91	37.9	1	2	248	0.00	29.992 
02:25	40.3	40.3	40.3	91	37.9	1	3	248	0.00	29.992 
02:30	40.3	40.3	40.3	91	37.9	0	1	248	0.00	30.005 
02:35	40.3	40.3	40.3	90	37.6	1	3	248	0.00	30.005 
02:40	40.2	40.2	40.2	90	37.5	0	2	248	0.00	30.005 
02:45	40.2	40.2	40.2	90	37.5	1	3	248	0.00	30.012 
02:50	40.3	40.3	40.3	90	37.6	0	3	248	0.00	30.012 
02:55	40.2	40.2	40.2	90	37.5	1	3	248	0.00	30.012 
03:00	40.2	40.2	40.2	90	37.5	0	1	248	0.00	30.007 
03:05	40.2	40.2	40.2	90	37.5	0	2	248	0.00	30.007 
03:10	40.1	40.1	40.1	90	37.4	1	4	248	0.00	30.007 
03:15	40.1	40.1	40.1	90	37.4	0	2	248	0.00	30.014 
03:20	40.1	40.1	40.1	90	37.4	0	1	248	0.00	30.014 
03:25	40.1	40.1	40.1	90	37.4	1	2	248	0.00	30.014 
03:30	40.1	40.1	40.1	89	37.1	1	4	248	0.00	30.015 
03:35	40.2	40.2	40.2	89	37.2	0	2	248	0.00	30.015 
03:40	40.2	40.2	40.2	89	37.2	0	1	248	0.00	30.015 
03:45	40.2	40.2	40.2	89	37.2	0	2	248	0.00	30.013 
03:50	40.2	40.2	40.2	89	37.2	1	3	248	0.00	30.013 
03:55	40.2	40.2	40.2	89	37.2	1	3	248	0.00	30.013 
04:00	40.2	40.2	40.2	89	37.2	1	3	248	0.00	30.006 
04:05	40.2	40.2	40.2	89	37.2	0	2	248	0.00	30.006 
04:10	40.2	40.2	40.2	89	37.2	0	2	248	0.00	30.006 
04:15	40.1	40.1	40.1	89	37.1	0	1	248	0.00	30.003 
04:20	40.1	40.1	40.1	89	37.1	0	2	248	0.00	30.003 
04:25	40.1	40.1	40.1	89	37.1	0	2	248	0.00	30.003 
04:30	40.1	40.1	40.1	89	37.1	0	3	248	0.00	30.023 
04:35	40.1	40.1	40.1	89	37.1	1	3	248	0.00	30.023 
04:40	40.1	40.1	40.1	89	37.1	1	3	248	0.00	30.023 
04:45	40.2	40.2	40.2	89	37.2	0	3	248	0.00	30.036 
04:50	40.2	40.2	40.2	89	37.2	1	3	248	0.00	30.036 
04:55	40.2	40.2	40.2	89	37.2	0	2	248	0.00	30.036 
05:00	40.1	40.1	40.1	89	37.1	1	3	248	0.00	30.037 
05:05	40.1	40.1	40.1	89	37.1	0	3	248	0.00	30.037 
05:10	40.1	40.1	40.1	89	37.1	0	2	248	0.00	30.037 
05:15	40.1	40.1	40.1	89	37.1	1	3	248	0.00	30.045 
05:20	40.1	40.1	40.1	89	37.1	1	5	248	0.00	30.045 
05:25	40.1	40.1	40.1	89	37.1	0	2	270	0.00	30.045 
05:30	40.1	40.1	40.1	89	37.1	0	2	270	0.00	30.041 
05:35	40.1	40.1	40.1	88	36.8	0	2	270	0.00	30.041 
05:40	40.1	40.1	40.1	88	36.8	1	2	270	0.00	30.041 
05:45	40.1	40.1	40.1	88	36.8	1	4	270	0.00	30.053 
05:50	39.9	39.9	39.9	86	36.1	1	3	270	0.00	30.053 
05:55	40.1	40.1	40.1	84	35.7	1	3	270	0.00	30.053 
06:00	40.2	40.2	40.2	83	35.5	1	3	248	0.00	30.057 
06:05	40.2	40.2	40.2	82	35.2	0	3	248	0.00	30.057 
06:10	40.3	40.3	40.3	82	35.2	0	2	248	0.00	30.057 
06:15	40.3	40.3	40.3	81	34.9	0	1	248	0.00	30.059 
06:20	40.3	40.3	40.3	81	34.9	0	1	248	0.00	30.059 
06:25	40.3	40.3	40.3	81	34.9	0	1	248	0.00	30.059 
06:30	40.3	40.3	40.3	82	35.2	0	1	248	0.00	30.066 
06:35	40.3	40.3	40.3	82	35.2	0	1	248	0.00	30.066 
06:40	40.2	40.2	40.2	82	35.2	0	3	248	0.00	30.066 
06:45	40.2	40.2	40.2	82	35.2	0	1	248	0.00	30.084 
06:50	40.2	40.2	40.2	83	35.5	0	1	248	0.00	30.084 
06:55	40.3	40.3	40.3	83	35.6	0	2	248	0.00	30.084 
07:00	40.3	40.3	40.3	84	35.9	0	1	248	0.00	30.085 
07:05	40.2	40.2	40.2	84	35.8	0	0	---	0.00	30.085 
07:10	40.2	40.2	40.2	84	35.8	0	1	248	0.00	30.085 
07:15	40.1	40.1	40.1	84	35.7	0	0	---	0.00	30.068 
07:20	40.1	40.1	40.1	84	35.7	0	0	---	0.00	30.068 
07:25	40.1	40.1	40.1	84	35.7	0	0	---	0.00	30.068 
07:30	39.9	39.9	39.9	84	35.5	0	0	---	0.00	30.055 
07:35	39.8	39.8	39.8	84	35.4	0	0	---	0.00	30.055 
07:40	39.6	39.6	39.6	83	34.9	0	0	---	0.00	30.055 
07:45	39.5	39.5	39.5	83	34.8	0	0	---	0.00	30.053 
07:50	39.2	39.2	39.2	83	34.5	0	0	---	0.00	30.053 
07:55	38.8	38.8	38.8	83	34.1	0	0	---	0.00	30.053 
08:00	38.5	38.5	38.5	84	34.1	0	0	---	0.00	30.064 
08:05	38.0	38.0	38.0	84	33.6	0	0	---	0.00	30.064 
08:10	37.6	37.6	37.6	84	33.2	0	0	---	0.00	30.064 
08:15	37.2	37.2	37.2	85	33.1	0	0	---	0.00	30.049 
08:20	36.9	36.9	36.9	84	32.5	0	0	---	0.00	30.049 
08:25	36.5	36.5	36.5	85	32.4	0	0	---	0.00	30.049 
08:30	36.2	36.2	36.2	85	32.1	0	0	---	0.00	30.052 
08:35	35.9	35.9	35.9	85	31.8	0	0	---	0.00	30.052 
08:40	35.8	35.8	35.8	86	32.0	0	0	---	0.00	30.052 
08:45	35.6	35.6	35.6	87	32.1	0	0	---	0.00	30.058 
08:50	35.8	35.8	35.8	88	32.6	0	0	---	0.00	30.058 
08:55	35.8	35.8	35.8	88	32.6	0	0	---	0.00	30.058 
09:00	35.8	35.8	35.8	88	32.6	0	0	---	0.00	30.058 
09:05	35.9	35.9	35.9	89	33.0	0	0	---	0.00	30.058 
09:10	35.9	35.9	35.9	89	33.0	0	0	---	0.00	30.058 
09:15	36.0	36.0	36.0	89	33.1	0	0	---	0.00	30.086 
09:20	36.2	36.2	36.2	90	33.6	0	0	---	0.00	30.086 
09:25	36.5	36.5	36.5	90	33.9	0	0	---	0.00	30.086 
09:30	36.8	36.8	36.8	91	34.4	0	0	---	0.00	30.089 
09:35	37.2	37.2	37.2	91	34.8	0	0	---	0.00	30.089 
09:40	37.8	37.8	37.8	91	35.4	0	0	---	0.00	30.089 
09:45	38.2	38.2	38.2	92	36.1	0	0	---	0.00	30.090 
09:50	38.6	38.6	38.6	92	36.5	0	0	---	0.00	30.090 
09:55	39.1	39.1	39.1	92	37.0	0	0	---	0.00	30.090 
10:00	39.3	39.3	39.3	91	36.9	0	0	---	0.00	30.099 
10:05	39.6	39.6	39.6	91	37.2	0	1	248	0.00	30.099 
10:10	39.9	39.9	39.9	90	37.2	0	0	---	0.00	30.099 
10:15	40.1	40.1	40.1	89	37.1	0	2	248	0.00	30.118 
10:20	40.1	40.1	40.1	86	36.3	1	2	248	0.00	30.118 
10:25	40.3	40.3	40.3	83	35.6	0	1	248	0.00	30.118 
10:30	40.5	40.5	40.5	81	35.1	0	1	248	0.00	30.110 
10:35	40.6	40.6	40.6	79	34.6	0	2	248	0.00	30.110 
10:40	40.9	40.9	40.9	78	34.6	0	1	248	0.00	30.110 
10:45	41.1	41.1	41.1	76	34.1	0	1	248	0.00	30.109 
10:50	41.1	41.1	41.1	74	33.5	0	2	248	0.00	30.109 
10:55	41.2	41.2	41.2	73	33.2	0	2	248	0.00	30.109 
11:00	41.3	41.3	41.3	73	33.3	0	2	248	0.00	30.102 
11:05	41.5	41.5	41.5	73	33.5	0	2	248	0.00	30.102 
11:10	41.5	41.5	41.5	73	33.5	0	2	248	0.00	30.102 
11:15	41.6	41.6	41.6	73	33.6	0	1	248	0.00	30.088 
11:20	41.6	41.6	41.6	73	33.6	0	2	248	0.00	30.088 
11:25	41.6	41.6	41.6	73	33.6	0	1	248	0.00	30.088 
11:30	41.6	41.6	41.6	73	33.6	0	3	248	0.00	30.091 
11:35	41.6	41.6	41.6	72	33.3	0	2	248	0.00	30.091 
11:40	41.6	41.6	41.6	72	33.3	0	1	248	0.00	30.091 
11:45	41.8	41.8	41.8	72	33.4	0	1	248	0.00	30.082 
11:50	41.8	41.8	41.8	72	33.4	0	2	248	0.00	30.082 
11:55	41.8	41.8	41.8	71	33.1	0	2	248	0.00	30.082 
12:00	41.8	41.8	41.8	72	33.4	0	2	68	0.00	30.068 
12:05	41.8	41.8	41.8	72	33.4	0	2	68	0.00	30.068 
12:10	41.8	41.8	41.8	71	33.1	0	2	68	0.00	30.068 
12:15	41.8	41.8	41.8	71	33.1	0	1	68	0.00	30.084 
12:20	41.9	41.9	41.9	71	33.2	0	1	68	0.00	30.084 
12:25	41.9	41.9	41.9	72	33.5	0	2	68	0.00	30.084 
12:30	41.8	41.8	41.8	70	32.7	0	2	68	0.00	30.087 
12:35	41.8	41.8	41.8	70	32.7	0	2	68	0.00	30.087 
12:40	41.9	41.9	41.9	71	33.2	0	0	---	0.00	30.087 
12:45	41.9	41.9	41.9	70	32.8	0	0	---	0.00	30.099 
12:50	41.9	41.9	41.9	70	32.8	0	0	---	0.00	30.099 
12:55	42.1	42.1	42.1	70	33.0	0	1	68	0.00	30.099 
13:00	41.9	41.9	41.9	69	32.5	0	0	---	0.00	30.100 
13:05	42.1	42.1	42.1	69	32.7	0	1	68	0.00	30.100 
13:10	42.1	42.1	42.1	69	32.7	0	0	---	0.00	30.100 
13:15	42.1	42.1	42.1	68	32.3	0	0	---	0.00	30.086 
13:20	42.1	42.1	42.1	68	32.3	0	0	---	0.00	30.086 
13:25	42.1	42.1	42.1	68	32.3	0	0	---	0.00	30.086 
13:30	42.2	42.2	42.2	68	32.4	0	2	68	0.00	30.073 
13:35	42.2	42.2	42.2	69	32.8	0	0	---	0.00	30.073 
13:40	42.1	42.1	42.1	68	32.3	0	0	---	0.00	30.073 
13:45	42.2	42.2	42.2	69	32.8	0	0	---	0.00	30.063 
13:50	42.2	42.2	42.2	68	32.4	0	0	---	0.00	30.063 
13:55	42.2	42.2	42.2	68	32.4	0	1	68	0.00	30.063 
14:00	42.2	42.2	42.2	68	32.4	0	1	68	0.00	30.059 
14:05	42.1	42.1	42.1	69	32.7	0	2	68	0.00	30.059 
14:10	42.1	42.1	42.1	69	32.7	0	1	68	0.00	30.059 
14:15	42.1	42.1	42.1	69	32.7	0	0	---	0.00	30.055 
14:20	41.9	41.9	41.9	68	32.1	0	0	---	0.00	30.055 
14:25	42.1	42.1	42.1	69	32.7	0	1	68	0.00	30.055 
14:30	42.1	42.1	42.1	69	32.7	0	0	---	0.00	30.060 
14:35	42.1	42.1	42.1	69	32.7	0	0	---	0.00	30.060 
14:40	41.9	41.9	41.9	69	32.5	0	1	68	0.00	30.060 
14:45	41.9	41.9	41.9	68	32.1	0	0	---	0.00	30.068 
14:50	41.9	41.9	41.9	68	32.1	0	0	---	0.00	30.068 
14:55	41.9	41.9	41.9	69	32.5	0	0	---	0.00	30.068 
15:00	41.9	41.9	41.9	69	32.5	0	0	---	0.00	30.065 
15:05	41.9	41.9	41.9	69	32.5	0	0	---	0.00	30.065 
15:10	41.9	41.9	41.9	70	32.8	0	1	68	0.00	30.065 
15:15	41.9	41.9	41.9	70	32.8	0	0	---	0.00	30.057 
15:20	41.9	41.9	41.9	70	32.8	0	2	68	0.00	30.057 
15:25	41.8	41.8	41.8	71	33.1	0	1	68	0.00	30.057 
15:30	41.8	41.8	41.8	71	33.1	0	2	68	0.00	30.050 
15:35	41.8	41.8	41.8	71	33.1	0	0	---	0.00	30.050 
15:40	41.8	41.8	41.8	73	33.8	0	0	---	0.00	30.050 
15:45	41.6	41.6	41.6	73	33.6	0	1	68	0.00	30.046 
15:50	41.6	41.6	41.6	73	33.6	0	1	68	0.00	30.046 
15:55	41.5	41.5	41.5	73	33.5	0	0	---	0.00	30.046 
16:00	41.5	41.5	41.5	74	33.8	0	0	---	0.00	30.050 
16:05	41.5	41.5	41.5	74	33.8	0	0	---	0.00	30.050 
16:10	41.3	41.3	41.3	74	33.6	0	0	---	0.00	30.050 
16:15	41.3	41.3	41.3	74	33.6	0	0	---	0.00	30.041 
16:20	41.3	41.3	41.3	74	33.6	0	0	---	0.00	30.041 
16:25	41.3	41.3	41.3	74	33.6	0	0	---	0.00	30.041 
16:30	41.2	41.2	41.2	74	33.6	0	0	---	0.00	30.033 
16:35	41.2	41.2	41.2	74	33.6	0	0	---	0.00	30.033 
16:40	41.2	41.2	41.2	74	33.6	0	0	---	0.00	30.033 
16:45	41.2	41.2	41.2	74	33.6	0	0	---	0.00	30.023 
16:50	41.1	41.1	41.1	74	33.5	0	0	---	0.00	30.023 
16:55	41.1	41.1	41.1	75	33.8	0	0	---	0.00	30.023 
17:00	41.1	41.1	41.1	75	33.8	0	0	---	0.00	30.013 
17:05	40.9	40.9	40.9	75	33.6	0	0	---	0.00	30.013 
17:10	40.9	40.9	40.9	76	33.9	0	0	---	0.00	30.013 
17:15	40.8	40.8	40.8	76	33.8	0	0	---	0.00	30.010 
17:20	40.8	40.8	40.8	76	33.8	0	0	---	0.00	30.010 
17:25	40.6	40.6	40.6	76	33.6	0	0	---	0.00	30.010 
17:30	40.6	40.6	40.6	76	33.6	0	0	---	0.00	30.022 
17:35	40.5	40.5	40.5	76	33.5	0	0	---	0.00	30.022 
17:40	40.3	40.3	40.3	76	33.3	0	0	---	0.00	30.022 
17:45	40.3	40.3	40.3	77	33.7	0	0	---	0.00	30.025 
17:50	40.3	40.3	40.3	77	33.7	0	0	---	0.00	30.025 
17:55	40.2	40.2	40.2	78	33.9	0	0	---	0.00	30.025 
18:00	40.1	40.1	40.1	78	33.8	0	0	---	0.00	30.026 
18:05	39.9	39.9	39.9	79	33.9	0	0	---	0.00	30.026 
18:10	39.9	39.9	39.9	79	33.9	0	0	---	0.00	30.026 
18:15	39.8	39.8	39.8	79	33.8	0	0	---	0.00	30.044 
18:20	39.6	39.6	39.6	79	33.6	0	0	---	0.00	30.044 
18:25	39.6	39.6	39.6	80	33.9	0	0	---	0.00	30.044 
18:30	39.5	39.5	39.5	80	33.9	0	0	---	0.00	30.052 
18:35	39.5	39.5	39.5	80	33.9	0	0	---	0.00	30.052 
18:40	39.5	39.5	39.5	80	33.9	0	0	---	0.00	30.052 
18:45	39.5	39.5	39.5	81	34.2	0	0	---	0.00	30.067 
18:50	39.6	39.6	39.6	81	34.3	0	0	---	0.00	30.067 
18:55	39.6	39.6	39.6	81	34.3	0	1	68	0.00	30.067 
19:00	39.8	39.8	39.8	80	34.1	0	0	---	0.00	30.076 
19:05	39.9	39.9	39.9	81	34.6	0	0	---	0.00	30.076 
19:10	39.9	39.9	39.9	81	34.6	0	0	---	0.00	30.076 
19:15	39.9	39.9	39.9	81	34.6	0	0	---	0.00	30.083 
19:20	39.9	39.9	39.9	81	34.6	0	0	---	0.00	30.083 
19:25	39.9	39.9	39.9	82	34.9	0	0	---	0.00	30.083 
19:30	39.9	39.9	39.9	82	34.9	0	0	---	0.00	30.087 
19:35	39.8	39.8	39.8	83	35.1	0	0	---	0.00	30.087 
19:40	39.8	39.8	39.8	84	35.4	0	0	---	0.00	30.087 
19:45	39.8	39.8	39.8	84	35.4	0	0	---	0.00	30.084 
19:50	39.6	39.6	39.6	85	35.5	0	0	---	0.00	30.084 
19:55	39.5	39.5	39.5	86	35.7	0	0	---	0.00	30.084 
20:00	39.5	39.5	39.5	87	36.0	0	0	---	0.00	30.080 
20:05	39.3	39.3	39.3	87	35.8	0	0	---	0.00	30.080 
20:10	39.3	39.3	39.3	87	35.8	0	0	---	0.00	30.080 
20:15	39.2	39.2	39.2	87	35.7	0	0	---	0.00	30.088 
20:20	39.2	39.2	39.2	88	35.9	0	0	---	0.00	30.088 
20:25	39.2	39.2	39.2	88	35.9	0	0	---	0.00	30.088 
20:30	39.1	39.1	39.1	88	35.9	0	0	---	0.01	30.085 
20:35	39.1	39.1	39.1	88	35.9	0	0	---	0.00	30.085 
20:40	38.9	38.9	38.9	89	35.9	0	0	---	0.00	30.085 
20:45	38.9	38.9	38.9	89	35.9	0	0	---	0.00	30.080 
20:50	38.9	38.9	38.9	89	35.9	0	0	---	0.00	30.080 
20:55	38.9	38.9	38.9	89	35.9	0	0	---	0.00	30.080 
21:00	38.9	38.9	38.9	90	36.2	0	0	---	0.00	30.083 
21:05	38.9	38.9	38.9	90	36.2	0	0	---	0.00	30.083 
21:10	38.9	38.9	38.9	90	36.2	0	0	---	0.00	30.083 
21:15	38.9	38.9	38.9	90	36.2	0	0	---	0.00	30.086 
21:20	38.9	38.9	38.9	91	36.5	0	0	---	0.00	30.086 
21:25	39.1	39.1	39.1	91	36.7	0	0	---	0.00	30.086 
21:30	39.1	39.1	39.1	91	36.7	0	0	---	0.00	30.088 
21:35	39.2	39.2	39.2	91	36.8	0	0	---	0.00	30.088 
21:40	39.1	39.1	39.1	91	36.7	0	1	68	0.00	30.088 
21:45	39.1	39.1	39.1	91	36.7	0	0	---	0.00	30.088 
21:50	39.1	39.1	39.1	91	36.7	0	1	68	0.00	30.088 
21:55	38.9	38.9	38.9	91	36.5	0	0	---	0.00	30.088 
22:00	38.9	38.9	38.9	91	36.5	0	0	---	0.00	30.088 
22:05	38.9	38.9	38.9	91	36.5	0	1	68	0.00	30.088 
22:10	38.9	38.9	38.9	91	36.5	0	0	---	0.00	30.088 
22:15	38.9	38.9	38.9	91	36.5	0	0	---	0.00	30.087 
22:20	38.9	38.9	38.9	91	36.5	0	0	---	0.00	30.087 
22:25	38.9	38.9	38.9	91	36.5	0	1	68	0.00	30.087 
22:30	38.9	38.9	38.9	91	36.5	0	0	---	0.00	30.089 
22:35	38.9	38.9	38.9	91	36.5	0	0	---	0.00	30.089 
22:40	38.8	38.8	38.8	91	36.4	0	1	68	0.00	30.089 
22:45	38.8	38.8	38.8	91	36.4	0	1	68	0.00	30.094 
22:50	38.8	38.8	38.8	91	36.4	0	1	68	0.00	30.094 
22:55	38.8	38.8	38.8	91	36.4	0	1	68	0.00	30.094 
23:00	38.8	38.8	38.8	91	36.4	0	0	---	0.00	30.100 
23:05	38.8	38.8	38.8	91	36.4	0	1	68	0.00	30.100 
23:10	38.8	38.8	38.8	92	36.7	0	1	68	0.00	30.100 
23:15	38.8	38.8	38.8	92	36.7	0	1	68	0.00	30.100 
23:20	38.8	38.8	38.8	92	36.7	1	2	68	0.00	30.100 
23:25	38.6	38.6	38.6	91	36.2	2	6	338	0.00	30.100 
23:30	38.3	38.3	38.3	91	35.9	1	4	270	0.00	30.105 
23:35	38.0	38.0	38.0	91	35.6	1	5	292	0.00	30.105 
23:40	37.9	37.9	37.9	90	35.2	0	2	22	0.00	30.105 
23:45	37.9	37.9	37.9	90	35.2	0	2	22	0.00	30.112 
23:50	37.8	37.8	37.8	90	35.1	0	3	22	0.00	30.112 
23:55	37.8	37.8	37.8	90	35.1	0	2	315	0.00	30.112 

CoCoRaHS
IN-AL-39
A2 Web Hosting
Creative Commons License
GoDaddy
search engine by freefind advanced

loaded 2018-11-12 14:59:09 • last modified 2010-11-18 10:43:29
Privacy PolicyDisclaimer
• wx.awcolley.com is powered by PmWiki v.2002016 •
• all content (unless otherwise noted) © 2018 A W Colley